Time;durP1;ratioP1;P1;durP2;ratioP2;P2;SDS_P1;SDS_P2;PMS_P1;PMS_P2;Temp;Humidity;BMP_temperature;BMP_pressure;BME280_temperature;BME280_humidity;BME280_pressure;Samples;Min_cycle;Max_cycle;Signal;HPM_P1;HPM_P2
2023/03/10 00:01:19;;;;;;;4.17;2.30;;;10.90;76.80;;;14.01;47.36;95644.88;5032979;28;20045;-47
2023/03/10 00:03:47;;;;;;;;;;;10.90;77.80;;;14.01;47.24;95639.53;5034624;28;20042;-46
2023/03/10 00:06:19;;;;;;;4.00;2.20;;;10.90;78.90;;;14.06;47.21;95631.63;5034255;28;19921;-47
2023/03/10 00:08:46;;;;;;;4.57;2.83;;;10.80;77.00;;;14.02;47.15;95625.13;5033011;28;20523;-47
2023/03/10 00:11:14;;;;;;;3.53;1.70;;;10.90;77.80;;;14.00;47.21;95614.66;5033760;28;20037;-45
2023/03/10 00:13:42;;;;;;;3.63;2.10;;;10.90;77.70;;;13.98;47.52;95604.19;5034316;28;20417;-45
2023/03/10 00:16:26;;;;;;;2.90;2.08;;;10.90;77.40;;;14.02;47.39;95606.41;5026267;28;20072;-50
2023/03/10 00:18:54;;;;;;;6.20;3.13;;;10.90;77.80;;;14.02;47.28;95596.50;5032603;28;20053;-48
2023/03/10 00:21:26;;;;;;;4.03;2.40;;;10.90;78.20;;;14.05;47.44;95590.66;5033774;28;20041;-46
2023/03/10 00:23:54;;;;;;;7.47;2.87;;;10.90;77.40;;;14.04;47.33;95581.03;5033943;28;20052;-46
2023/03/10 00:26:26;;;;;;;3.37;2.00;;;10.90;77.40;;;14.02;47.39;95571.63;5033610;28;20045;-48
2023/03/10 00:28:54;;;;;;;2.50;1.47;;;10.90;77.50;;;14.02;47.41;95577.78;5032390;28;20501;-45
2023/03/10 00:31:25;;;;;;;4.37;1.50;;;10.80;77.40;;;14.03;47.35;95570.56;5032106;28;20060;-49
2023/03/10 00:33:54;;;;;;;3.47;1.60;;;10.80;77.30;;;14.04;47.44;95572.19;5033772;28;20056;-46
2023/03/10 00:36:28;;;;;;;2.77;1.40;;;10.90;77.20;;;14.01;47.27;95565.44;5033202;28;20049;-46
2023/03/10 00:38:59;;;;;;;4.10;1.83;;;10.90;77.10;;;13.98;47.37;95572.06;5032149;28;20045;-48
2023/03/10 00:41:32;;;;;;;4.07;1.40;;;10.80;77.10;;;13.97;47.43;95572.31;5033374;28;20041;-46
2023/03/10 00:44:00;;;;;;;6.43;1.60;;;10.90;77.30;;;13.98;47.68;95565.91;5032343;28;20041;-46
2023/03/10 00:46:28;;;;;;;3.30;1.73;;;10.80;77.20;;;13.96;47.56;95571.50;5015573;28;20414;-47
2023/03/10 00:48:56;;;;;;;2.87;1.07;;;10.80;77.10;;;13.97;47.47;95574.97;5031655;28;20049;-50
2023/03/10 00:51:24;;;;;;;4.75;1.75;;;10.80;77.00;;;13.95;47.58;95572.53;5033206;28;20042;-46
2023/03/10 00:53:51;;;;;;;4.57;1.75;;;10.80;76.80;;;13.96;47.54;95568.81;5033261;28;20049;-45
2023/03/10 00:56:25;;;;;;;2.97;1.57;;;10.80;77.00;;;13.96;47.70;95565.34;5031248;28;20049;-45
2023/03/10 00:58:58;;;;;;;2.38;1.30;;;10.90;77.70;;;13.96;47.66;95568.00;5033076;28;20041;-50
2023/03/10 01:01:38;;;;;;;4.37;1.27;;;10.80;77.80;;;13.93;47.63;95565.78;5032235;28;20053;-46
2023/03/10 01:04:14;;;;;;;2.83;1.27;;;10.80;77.90;;;13.90;47.75;95561.72;5033034;28;20045;-46
2023/03/10 01:06:43;;;;;;;2.33;1.50;;;10.80;78.00;;;13.87;47.98;95558.69;5032416;28;20045;-45
2023/03/10 01:09:11;;;;;;;4.37;1.50;;;10.70;78.00;;;13.86;47.93;95551.72;5031994;28;20050;-44
2023/03/10 01:11:38;;;;;;;4.07;1.20;;;10.70;78.50;;;13.84;47.78;95554.63;5031349;28;20041;-47
2023/03/10 01:14:10;;;;;;;3.03;1.67;;;10.70;78.20;;;13.85;48.01;95544.75;5014946;28;20436;-46
2023/03/10 01:16:37;;;;;;;2.90;1.73;;;10.70;78.40;;;13.85;48.02;95531.38;5031507;28;20049;-46
2023/03/10 01:19:05;;;;;;;5.27;1.70;;;10.70;78.30;;;13.84;47.86;95530.56;5031595;28;20049;-45
2023/03/10 01:21:36;;;;;;;4.25;1.83;;;10.70;78.30;;;13.82;48.02;95521.94;5030535;28;20064;-48
2023/03/10 01:24:05;;;;;;;2.40;1.33;;;10.70;78.40;;;13.82;47.84;95521.94;5031520;28;20037;-47
2023/03/10 01:26:34;;;;;;;2.43;1.53;;;10.60;77.90;;;13.81;47.70;95519.53;5014455;28;20143;-48
2023/03/10 01:29:02;;;;;;;5.20;1.60;;;10.60;77.80;;;13.77;47.86;95516.50;5031737;28;20508;-48
2023/03/10 01:31:29;;;;;;;2.50;1.30;;;10.60;77.90;;;13.67;48.05;95513.59;5030701;28;20417;-47
2023/03/10 01:33:57;;;;;;;1.60;1.30;;;10.60;78.00;;;13.68;47.93;95509.88;5030740;28;20049;-48
2023/03/10 01:36:26;;;;;;;3.63;1.13;;;10.60;77.90;;;13.64;48.20;95506.84;5030516;28;20049;-48
2023/03/10 01:38:56;;;;;;;2.83;1.30;;;10.60;77.70;;;13.63;48.11;95505.22;5014228;28;20049;-48
2023/03/10 01:41:24;;;;;;;2.13;1.30;;;10.60;77.90;;;13.53;48.47;95500.47;5032263;28;20042;-49
2023/03/10 01:43:55;;;;;;;4.73;1.60;;;10.60;78.10;;;13.52;48.63;95488.13;5032210;28;20077;-46
2023/03/10 01:46:40;;;;;;;4.33;1.50;;;10.60;79.00;;;13.50;48.74;95486.75;5032074;28;20041;-47
2023/03/10 01:49:41;;;;;;;3.97;1.20;;;10.50;79.10;;;13.47;49.08;95488.00;5031901;28;20544;-45
2023/03/10 01:52:21;;;;;;;3.70;1.37;;;10.50;79.70;;;13.44;49.00;95480.47;5025997;28;20053;-48
2023/03/10 01:55:19;;;;;;;2.23;1.47;;;10.50;81.40;;;13.40;49.61;95479.28;5014535;28;20045;-51
2023/03/10 01:57:52;;;;;;;3.73;1.40;;;10.50;80.60;;;13.43;49.34;95473.47;5014715;28;20049;-46
2023/03/10 02:00:22;;;;;;;4.00;1.47;;;10.50;80.80;;;13.41;49.58;95469.41;5007219;28;20390;-46
2023/03/10 02:03:08;;;;;;;2.90;1.60;;;10.50;80.90;;;13.40;49.75;95465.94;5030226;28;20045;-45
2023/03/10 02:05:47;;;;;;;3.97;1.40;;;10.50;82.00;;;13.43;49.72;95462.78;5014955;28;20045;-48
2023/03/10 02:08:17;;;;;;;1.77;1.23;;;10.50;82.20;;;13.45;49.89;95458.00;5007431;28;20049;-50
2023/03/10 02:10:47;;;;;;;3.77;1.33;;;10.50;82.40;;;13.45;50.16;95458.00;5014175;28;20041;-47
2023/03/10 02:13:16;;;;;;;2.73;1.30;;;10.50;82.70;;;13.49;50.07;95461.88;5023894;28;20038;-47
2023/03/10 02:15:45;;;;;;;1.67;1.20;;;10.60;83.60;;;13.52;50.17;95460.59;5031870;28;20053;-47
2023/03/10 02:18:14;;;;;;;1.70;1.13;;;10.50;84.10;;;13.46;50.42;95458.84;5013982;28;20065;-49
2023/03/10 02:21:15;;;;;;;3.30;1.50;;;10.50;84.40;;;13.39;50.93;95456.28;5030856;28;20041;-45
2023/03/10 02:24:14;;;;;;;7.80;1.50;;;10.50;85.80;;;13.40;50.74;95447.22;5025887;28;20497;-46
2023/03/10 02:27:00;;;;;;;3.33;1.20;;;10.50;86.30;;;13.35;51.17;95455.13;5027892;28;20045;-50
2023/03/10 02:29:34;;;;;;;2.70;1.00;;;10.50;87.10;;;13.41;51.05;95442.69;5014961;28;20041;-48
2023/03/10 02:32:13;;;;;;;2.33;0.85;;;10.50;87.50;;;13.42;50.80;95436.31;5030371;28;20081;-48
2023/03/10 02:34:41;;;;;;;2.00;1.53;;;10.50;87.60;;;13.38;51.18;95442.09;5014415;28;20053;-45
2023/03/10 02:37:31;;;;;;;3.00;1.20;;;10.50;88.30;;;13.30;51.77;95446.97;5029494;28;20060;-49
2023/03/10 02:39:59;;;;;;;1.00;0.90;;;10.40;89.30;;;13.29;51.52;95435.44;5014195;28;20049;-48
2023/03/10 02:42:33;;;;;;;1.80;0.73;;;10.40;89.10;;;13.25;51.68;95436.16;5013696;28;20045;-46
2023/03/10 02:45:02;;;;;;;1.27;0.98;;;10.40;90.40;;;13.30;51.60;95425.59;5014567;28;20052;-48
2023/03/10 02:47:30;;;;;;;1.70;0.60;;;10.40;90.30;;;13.31;51.60;95424.56;5030278;28;20416;-50
2023/03/10 02:49:57;;;;;;;1.47;0.80;;;10.40;90.30;;;13.28;51.61;95427.66;5030177;28;20049;-50
2023/03/10 02:52:39;;;;;;;1.47;0.90;;;10.30;90.50;;;13.27;51.80;95416.16;5029210;28;20518;-47
2023/03/10 02:55:13;;;;;;;1.57;1.03;;;10.30;90.40;;;13.29;51.63;95414.06;5014397;28;20065;-49
2023/03/10 02:57:40;;;;;;;;;;;10.30;90.30;;;13.27;51.88;95412.69;5030475;28;20394;-48
2023/03/10 03:00:10;;;;;;;1.90;0.87;;;10.30;91.60;;;13.32;51.36;95410.97;5013499;28;19928;-47
2023/03/10 03:02:37;;;;;;;1.60;0.80;;;10.30;90.40;;;13.26;51.59;95409.22;5031147;28;20440;-46
2023/03/10 03:05:07;;;;;;;0.73;0.70;;;10.30;90.20;;;13.24;51.69;95405.13;5029476;28;20046;-49
2023/03/10 03:07:35;;;;;;;0.77;0.77;;;10.30;90.60;;;13.28;51.67;95414.28;5029854;28;20045;-46
2023/03/10 03:10:03;;;;;;;1.07;0.90;;;10.40;90.80;;;13.28;51.69;95414.28;5029635;28;20053;-47
2023/03/10 03:12:31;;;;;;;1.73;0.60;;;10.40;90.50;;;13.20;51.93;95418.13;5031067;28;20054;-47
2023/03/10 03:14:58;;;;;;;1.23;0.70;;;10.40;90.90;;;13.10;52.35;95415.22;5034917;28;20056;-47
2023/03/10 03:17:27;;;;;;;1.47;0.70;;;10.30;91.70;;;13.12;52.38;95405.94;5034195;28;20053;-48
2023/03/10 03:19:55;;;;;;;1.40;0.73;;;10.30;92.00;;;13.15;52.50;95410.00;5033710;28;20049;-48
2023/03/10 03:22:23;;;;;;;0.80;0.80;;;10.30;91.90;;;13.16;52.53;95406.28;5033790;28;20501;-45
2023/03/10 03:24:50;;;;;;;1.67;0.90;;;10.30;91.80;;;13.15;52.43;95410.81;5033438;28;20124;-50
2023/03/10 03:27:18;;;;;;;0.70;0.70;;;10.30;92.30;;;13.15;52.52;95410.00;5033346;28;20045;-49
2023/03/10 03:29:45;;;;;;;0.80;0.70;;;10.30;92.20;;;13.07;52.66;95403.16;5034118;28;20041;-47
2023/03/10 03:32:14;;;;;;;0.97;0.63;;;10.30;92.50;;;13.11;52.53;95398.16;5031897;28;20056;-45
2023/03/10 03:34:41;;;;;;;0.80;0.70;;;10.30;92.80;;;13.13;52.43;95394.22;5033155;28;20041;-47
2023/03/10 03:37:09;;;;;;;3.37;0.80;;;10.30;93.10;;;13.12;52.56;95384.56;5033458;28;20053;-46
2023/03/10 03:39:38;;;;;;;0.80;0.70;;;10.30;93.00;;;13.19;52.36;95373.78;5033027;28;20045;-50
2023/03/10 03:42:08;;;;;;;1.53;0.67;;;10.30;92.70;;;13.21;52.26;95377.03;5033470;28;20048;-52
2023/03/10 03:44:43;;;;;;;1.27;0.90;;;10.30;92.80;;;13.15;52.34;95370.75;5033024;28;20041;-47
2023/03/10 03:47:12;;;;;;;1.23;0.80;;;10.30;92.90;;;13.17;52.37;95374.00;5033073;28;20528;-45
2023/03/10 03:49:39;;;;;;;2.63;0.87;;;10.30;92.90;;;13.22;52.49;95383.97;5033692;28;20112;-45
2023/03/10 03:52:07;;;;;;;0.73;0.73;;;10.30;92.90;;;13.23;52.52;95377.59;5032946;28;20049;-50
2023/03/10 03:54:35;;;;;;;0.70;0.50;;;10.30;93.10;;;13.29;52.35;95378.53;5032618;28;20056;-47
2023/03/10 03:57:03;;;;;;;0.60;0.60;;;10.30;93.10;;;13.34;52.18;95379.50;5034432;28;20045;-45
2023/03/10 03:59:30;;;;;;;0.93;0.70;;;10.40;92.80;;;13.39;52.08;95382.25;5033190;28;20037;-48
2023/03/10 04:01:58;;;;;;;1.73;0.60;;;10.40;92.40;;;13.41;51.90;95378.53;5032564;28;20060;-47
2023/03/10 04:04:26;;;;;;;0.80;0.70;;;10.40;92.30;;;13.43;51.78;95379.13;5032857;28;20045;-48
2023/03/10 04:06:55;;;;;;;1.07;0.70;;;10.40;92.20;;;13.44;51.69;95384.25;5032690;28;20069;-46
2023/03/10 04:09:23;;;;;;;0.60;0.60;;;10.40;91.90;;;13.45;51.84;95379.69;5032009;28;20049;-49
2023/03/10 04:11:50;;;;;;;1.23;0.90;;;10.50;91.90;;;13.44;51.96;95386.09;5034128;28;20040;-48
2023/03/10 04:14:20;;;;;;;1.40;0.70;;;10.40;91.70;;;13.39;52.00;95382.25;5032664;28;20057;-49
2023/03/10 04:16:47;;;;;;;1.27;0.77;;;10.50;91.70;;;13.38;52.08;95380.63;5016116;28;20041;-47
2023/03/10 04:19:15;;;;;;;0.80;0.80;;;10.40;91.90;;;13.42;52.02;95380.19;5032557;28;20046;-48
2023/03/10 04:21:46;;;;;;;0.73;0.67;;;10.50;91.90;;;13.41;51.84;95370.53;5032645;28;20034;-46
2023/03/10 04:24:14;;;;;;;0.70;0.70;;;10.40;91.80;;;13.36;52.05;95376.59;5031663;28;20072;-51
2023/03/10 04:26:42;;;;;;;1.97;1.10;;;10.40;92.10;;;13.34;51.98;95381.34;5032394;28;20045;-49
2023/03/10 04:29:10;;;;;;;1.80;0.90;;;10.30;92.40;;;13.29;52.07;95368.66;5033088;28;20076;-51
2023/03/10 04:31:40;;;;;;;2.53;1.00;;;10.30;92.80;;;13.27;52.01;95368.06;5032344;28;20374;-48
2023/03/10 04:34:09;;;;;;;1.30;1.00;;;10.20;92.90;;;13.24;52.17;95373.06;5031406;28;20054;-48
2023/03/10 04:36:38;;;;;;;1.87;0.70;;;10.20;93.30;;;13.24;52.26;95368.56;5015586;28;20044;-49
2023/03/10 04:39:05;;;;;;;0.80;0.80;;;10.20;94.10;;;13.24;52.50;95384.59;5031933;28;20049;-52
2023/03/10 04:41:34;;;;;;;1.23;1.13;;;10.20;94.10;;;13.25;52.39;95377.38;5031872;28;20042;-49
2023/03/10 04:44:03;;;;;;;0.70;0.70;;;10.20;94.50;;;13.25;52.58;95378.19;5032050;28;20422;-47
2023/03/10 04:46:33;;;;;;;1.07;0.80;;;10.20;94.70;;;13.25;52.63;95380.84;5015521;28;20042;-48
2023/03/10 04:49:01;;;;;;;2.17;1.00;;;10.20;94.80;;;13.25;52.59;95372.84;5015513;28;20045;-46
2023/03/10 04:51:29;;;;;;;1.80;1.00;;;10.30;94.80;;;13.25;52.54;95372.84;5015616;28;20532;-47
2023/03/10 04:53:59;;;;;;;1.17;0.90;;;10.30;94.80;;;13.28;52.76;95366.19;5032081;28;20056;-45
2023/03/10 04:56:29;;;;;;;2.60;1.10;;;10.30;95.10;;;13.25;52.75;95351.47;5031656;28;20041;-48
2023/03/10 04:58:57;;;;;;;1.07;0.90;;;10.30;95.40;;;13.23;52.77;95363.44;5032483;28;20049;-45
2023/03/10 05:01:28;;;;;;;0.73;0.70;;;10.30;95.90;;;13.24;52.91;95365.88;5023973;28;20041;-46
2023/03/10 05:04:01;;;;;;;1.20;1.10;;;10.20;96.40;;;13.25;52.94;95362.16;5031401;28;20053;-45
2023/03/10 05:06:29;;;;;;;1.57;1.00;;;10.20;97.20;;;13.25;52.65;95359.47;5015094;28;20045;-46
2023/03/10 05:09:05;;;;;;;1.20;0.90;;;10.10;97.20;;;13.23;52.45;95355.41;5031182;28;20049;-45
2023/03/10 05:11:34;;;;;;;1.47;0.70;;;10.10;97.30;;;13.16;52.66;95348.34;5031535;28;20042;-46
2023/03/10 05:14:02;;;;;;;0.80;0.63;;;10.10;97.60;;;13.09;52.57;95355.66;5032878;28;20046;-48
2023/03/10 05:16:29;;;;;;;1.33;0.70;;;10.00;97.60;;;13.03;52.75;95350.41;5030802;28;20054;-52
2023/03/10 05:18:57;;;;;;;2.73;0.80;;;9.90;97.60;;;12.95;52.52;95323.03;5031342;28;20533;-48
2023/03/10 05:21:28;;;;;;;1.07;0.73;;;9.90;98.00;;;12.93;52.83;95326.97;5031926;28;20041;-48
2023/03/10 05:23:57;;;;;;;0.73;0.67;;;9.80;98.90;;;12.90;52.80;95322.91;5031279;28;20394;-49
2023/03/10 05:26:25;;;;;;;1.13;0.93;;;9.80;98.30;;;12.85;52.80;95322.78;5031216;28;20041;-46
2023/03/10 05:28:53;;;;;;;0.83;0.70;;;9.80;98.70;;;12.77;52.90;95313.25;5029273;28;20501;-46
2023/03/10 05:31:29;;;;;;;1.70;1.00;;;9.70;99.30;;;12.74;52.76;95311.06;5031626;28;20056;-49
2023/03/10 05:34:03;;;;;;;1.50;1.33;;;9.70;99.90;;;12.73;52.91;95322.78;5031385;28;20049;-47
2023/03/10 05:36:31;;;;;;;0.83;0.70;;;9.60;99.90;;;12.70;53.26;95320.59;5031391;28;20520;-45
2023/03/10 05:38:59;;;;;;;1.00;0.80;;;9.60;99.90;;;12.69;53.08;95313.59;5030826;28;20045;-47
2023/03/10 05:41:28;;;;;;;1.27;0.90;;;9.60;99.90;;;12.66;53.13;95313.25;5023441;28;20037;-46
2023/03/10 05:43:57;;;;;;;1.90;1.17;;;9.60;99.90;;;12.63;53.00;95306.53;5031171;28;20050;-50
2023/03/10 05:46:26;;;;;;;1.27;0.90;;;9.60;99.90;;;12.61;53.12;95313.97;5030740;28;20041;-48
2023/03/10 05:48:57;;;;;;;1.43;0.87;;;9.60;99.90;;;12.59;53.07;95316.84;5030488;28;20049;-50
2023/03/10 05:51:25;;;;;;;1.67;1.00;;;9.60;99.90;;;12.58;53.08;95317.91;5032097;28;20044;-47
2023/03/10 05:53:54;;;;;;;1.43;0.97;;;9.60;99.90;;;12.60;53.16;95318.50;5014624;28;20627;-48
2023/03/10 05:56:29;;;;;;;0.87;0.80;;;9.60;99.90;;;12.63;53.00;95308.41;5030077;28;20429;-46
2023/03/10 05:58:59;;;;;;;1.60;0.90;;;9.60;99.90;;;12.66;53.15;95295.41;5030737;28;20510;-49
2023/03/10 06:01:30;;;;;;;1.60;0.93;;;9.70;99.80;;;12.68;53.30;95305.81;5030912;28;20046;-45
2023/03/10 06:03:57;;;;;;;2.83;1.93;;;9.80;99.40;;;12.69;53.30;95284.25;5031774;28;20060;-47
2023/03/10 06:06:25;;;;;;;1.23;0.90;;;9.70;99.10;;;12.72;53.24;95291.81;5030595;28;20037;-46
2023/03/10 06:08:53;;;;;;;1.47;1.20;;;9.80;98.80;;;12.75;53.25;95285.19;5031918;28;20033;-47
2023/03/10 06:11:20;;;;;;;1.50;1.30;;;9.80;98.40;;;12.75;53.23;95285.19;5031587;28;20052;-47
2023/03/10 06:13:48;;;;;;;0.93;0.80;;;9.80;98.00;;;12.83;53.01;95278.69;5031811;28;20072;-46
2023/03/10 06:16:16;;;;;;;1.13;0.90;;;9.90;97.60;;;12.86;52.77;95271.00;5031229;28;20050;-46
2023/03/10 06:18:44;;;;;;;2.57;1.47;;;9.90;97.50;;;12.85;53.16;95242.66;5030662;28;20406;-47
2023/03/10 06:21:13;;;;;;;4.07;0.93;;;9.90;97.90;;;12.93;53.07;95220.13;5031737;28;20046;-45
2023/03/10 06:23:41;;;;;;;2.17;0.93;;;10.00;97.40;;;12.92;52.72;95214.00;5031758;28;20037;-50
2023/03/10 06:26:14;;;;;;;1.97;0.90;;;10.00;97.70;;;12.96;52.78;95219.69;5030026;28;20049;-47
2023/03/10 06:28:45;;;;;;;3.33;0.90;;;10.00;97.60;;;12.99;52.70;95238.72;5014436;28;20063;-46
2023/03/10 06:31:21;;;;;;;3.10;1.13;;;10.00;97.80;;;13.02;52.86;95250.78;5031460;28;20500;-45
2023/03/10 06:33:48;;;;;;;1.13;0.73;;;10.00;97.70;;;12.95;53.00;95258.94;5030832;28;20052;-48
2023/03/10 06:36:18;;;;;;;2.80;1.00;;;10.00;97.90;;;12.97;53.00;95258.72;5030981;28;20049;-49
2023/03/10 06:38:45;;;;;;;2.40;0.77;;;10.00;97.80;;;12.95;52.73;95253.59;5031329;28;20415;-47
2023/03/10 06:41:15;;;;;;;3.03;1.17;;;9.90;97.60;;;12.92;52.94;95247.91;5031142;28;20409;-48
2023/03/10 06:43:43;;;;;;;2.97;1.20;;;9.90;97.60;;;12.94;52.62;95251.97;5030380;28;20398;-48
2023/03/10 06:46:11;;;;;;;1.50;1.10;;;9.90;97.60;;;12.93;52.58;95244.19;5031059;28;20049;-50
2023/03/10 06:48:41;;;;;;;5.40;2.67;;;9.90;97.70;;;12.94;52.47;95251.16;5029731;28;20481;-46
2023/03/10 06:51:16;;;;;;;4.17;2.07;;;9.90;97.30;;;12.93;52.81;95252.19;5030828;28;20049;-48
2023/03/10 06:53:44;;;;;;;1.30;0.83;;;9.90;97.30;;;12.91;52.64;95249.78;5030043;28;20037;-47
2023/03/10 06:56:16;;;;;;;2.67;1.13;;;9.90;96.80;;;12.94;52.62;95230.59;5029425;28;20046;-47
2023/03/10 06:58:44;;;;;;;1.60;1.00;;;9.90;96.60;;;12.97;52.45;95227.47;5031098;28;20037;-45
2023/03/10 07:01:28;;;;;;;1.00;0.70;;;9.90;96.30;;;12.93;52.34;95228.16;5030765;28;20044;-47
2023/03/10 07:03:57;;;;;;;1.77;0.97;;;9.90;95.20;;;12.90;52.38;95232.13;5031340;28;20061;-48
2023/03/10 07:06:26;;;;;;;0.60;0.60;;;9.80;94.90;;;12.85;52.24;95229.31;5030690;28;20053;-49
2023/03/10 07:08:54;;;;;;;0.67;0.60;;;9.80;94.20;;;12.84;52.17;95221.56;5030682;28;20489;-44
2023/03/10 07:11:23;;;;;;;0.97;0.77;;;9.80;93.60;;;12.79;52.17;95217.75;5029636;28;20045;-50
2023/03/10 07:13:51;;;;;;;0.80;0.50;;;9.80;93.10;;;12.76;51.82;95222.75;5030783;28;20045;-47
2023/03/10 07:16:19;;;;;;;1.80;0.70;;;9.70;92.90;;;12.76;51.84;95225.41;5030617;28;20041;-46
2023/03/10 07:18:46;;;;;;;0.47;0.47;;;9.70;92.40;;;12.75;51.50;95229.13;5031005;28;20309;-48
2023/03/10 07:21:19;;;;;;;0.70;0.70;;;9.70;91.90;;;12.73;51.74;95224.00;5030720;28;20045;-50
2023/03/10 07:23:47;;;;;;;0.67;0.67;;;9.70;91.10;;;12.74;51.60;95217.63;5031068;28;20053;-47
2023/03/10 07:26:17;;;;;;;1.50;0.63;;;9.80;90.40;;;12.78;51.57;95234.81;5030213;28;20042;-46
2023/03/10 07:28:45;;;;;;;0.63;0.50;;;9.80;90.00;;;12.78;51.40;95245.47;5030582;28;20048;-47
2023/03/10 07:31:13;;;;;;;0.73;0.67;;;9.80;89.10;;;12.75;51.29;95258.47;5030618;28;20052;-47
2023/03/10 07:33:41;;;;;;;0.33;0.33;;;9.80;88.50;;;12.71;51.59;95262.66;5030432;28;20037;-46
2023/03/10 07:36:13;;;;;;;0.37;0.37;;;9.80;88.70;;;12.75;51.65;95258.47;5030224;28;20045;-48
2023/03/10 07:38:40;;;;;;;1.20;0.60;;;9.80;89.30;;;12.81;51.65;95257.53;5030705;28;20049;-45
2023/03/10 07:41:12;;;;;;;0.80;0.40;;;9.90;88.90;;;12.88;51.89;95254.78;5030542;28;20524;-45
2023/03/10 07:43:39;;;;;;;0.63;0.60;;;10.00;88.80;;;12.95;51.87;95258.94;5022500;28;20049;-46
2023/03/10 07:46:12;;;;;;;0.50;0.50;;;10.10;89.40;;;13.05;51.79;95250.31;5030387;28;20050;-44
2023/03/10 07:48:40;;;;;;;1.07;0.60;;;10.10;89.40;;;13.11;51.68;95264.59;5029619;28;20041;-48
2023/03/10 07:51:07;;;;;;;1.33;0.63;;;10.20;89.20;;;13.09;51.70;95266.69;5029474;28;20093;-51
2023/03/10 07:53:35;;;;;;;2.57;0.60;;;10.20;88.90;;;13.06;51.70;95264.50;5022741;28;20045;-49
2023/03/10 07:56:05;;;;;;;1.90;0.80;;;10.20;88.80;;;13.09;51.53;95274.72;5030076;28;20425;-49
2023/03/10 07:58:33;;;;;;;0.77;0.60;;;10.10;88.00;;;13.05;51.68;95268.22;5030473;28;20072;-45
2023/03/10 08:01:01;;;;;;;1.00;0.60;;;10.10;88.80;;;13.06;51.87;95267.16;5034064;28;20041;-45
2023/03/10 08:03:29;;;;;;;1.83;0.83;;;10.10;88.90;;;13.06;51.63;95249.28;5032799;28;20518;-46
2023/03/10 08:05:58;;;;;;;1.13;0.67;;;10.20;88.80;;;13.10;51.63;95268.31;5033976;28;20054;-49
2023/03/10 08:08:26;;;;;;;3.70;1.53;;;10.20;89.10;;;13.14;51.97;95264.13;5033768;28;20068;-48
2023/03/10 08:11:09;;;;;;;4.23;2.10;;;10.20;89.60;;;13.22;51.68;95285.13;5034085;28;20037;-47
2023/03/10 08:13:37;;;;;;;2.78;1.15;;;10.20;88.50;;;13.27;51.48;95297.78;5026255;28;20489;-47
2023/03/10 08:16:06;;;;;;;1.00;0.90;;;10.20;88.50;;;13.11;51.61;95294.78;5033717;28;20050;-52
2023/03/10 08:18:34;;;;;;;3.17;1.00;;;10.20;88.00;;;12.88;51.78;95314.31;5033686;28;20535;-45
2023/03/10 08:21:05;;;;;;;0.50;0.50;;;10.10;87.90;;;12.81;52.03;95316.28;5033717;28;20049;-48
2023/03/10 08:23:34;;;;;;;1.47;0.70;;;10.10;89.10;;;12.77;51.47;95305.25;5032542;28;20501;-46
2023/03/10 08:26:11;;;;;;;2.83;0.70;;;10.00;86.20;;;12.63;51.42;95316.41;5032305;28;20045;-47
2023/03/10 08:28:38;;;;;;;2.13;0.90;;;9.90;84.70;;;12.60;51.25;95342.50;5023001;28;20045;-47
2023/03/10 08:31:13;;;;;;;1.77;0.77;;;9.90;84.20;;;12.46;51.57;95322.41;5031693;28;20517;-46
2023/03/10 08:33:42;;;;;;;1.10;0.70;;;9.80;85.20;;;12.46;51.73;95319.72;5024704;28;20041;-46
2023/03/10 08:36:14;;;;;;;1.33;1.10;;;9.80;86.50;;;12.44;52.33;95327.16;5032005;28;20497;-46
2023/03/10 08:38:42;;;;;;;1.50;0.70;;;9.80;88.70;;;12.45;52.79;95331.47;5033328;28;20037;-48
2023/03/10 08:41:35;;;;;;;2.53;0.80;;;9.70;90.50;;;12.60;52.90;95329.16;5033217;28;20049;-48
2023/03/10 08:44:05;;;;;;;1.90;0.70;;;9.80;91.40;;;12.75;52.50;95342.03;5033520;28;20052;-49
2023/03/10 08:46:33;;;;;;;1.77;0.80;;;9.90;91.00;;;12.85;52.16;95320.09;5031317;28;20041;-48
2023/03/10 08:49:01;;;;;;;2.87;0.90;;;9.90;90.60;;;12.97;52.12;95302.25;5032646;28;20052;-46
2023/03/10 08:51:29;;;;;;;2.40;0.67;;;10.00;90.60;;;13.04;51.80;95314.66;5032995;28;20510;-44
2023/03/10 08:53:57;;;;;;;2.33;1.03;;;10.10;90.00;;;13.10;51.67;95314.53;5033299;28;20517;-47
2023/03/10 08:56:25;;;;;;;1.37;0.70;;;10.10;90.40;;;13.11;51.54;95316.16;5031776;28;20038;-48
2023/03/10 08:58:56;;;;;;;2.50;1.00;;;10.10;88.80;;;13.23;51.82;95320.69;5033200;28;20041;-49
2023/03/10 09:01:30;;;;;;;1.50;1.10;;;10.30;88.60;;;13.33;51.00;95323.59;5032735;28;20477;-46
2023/03/10 09:03:59;;;;;;;3.47;1.10;;;10.40;87.00;;;13.41;50.84;95325.91;5032993;28;20054;-45
2023/03/10 09:06:27;;;;;;;2.13;1.33;;;10.40;86.00;;;13.61;50.74;95322.03;5031727;28;20049;-44
2023/03/10 09:08:55;;;;;;;2.53;1.00;;;10.60;85.90;;;13.77;50.60;95326.63;5032683;28;20075;-49
2023/03/10 09:11:32;;;;;;;3.47;1.20;;;10.70;83.60;;;13.88;50.52;95327.63;5032249;28;20037;-47
2023/03/10 09:14:01;;;;;;;1.93;0.70;;;10.90;84.90;;;13.87;49.62;95329.50;5030632;28;20424;-44
2023/03/10 09:16:29;;;;;;;2.10;0.97;;;10.90;82.00;;;13.98;49.79;95328.66;5032506;28;20064;-47
2023/03/10 09:18:57;;;;;;;3.17;1.40;;;10.90;81.60;;;14.03;49.78;95340.50;5032824;28;20417;-47
2023/03/10 09:21:26;;;;;;;2.43;0.83;;;11.00;82.00;;;14.03;49.32;95343.16;5032574;28;20056;-48
2023/03/10 09:23:54;;;;;;;3.10;0.80;;;11.00;79.70;;;13.90;49.14;95346.91;5014939;28;20049;-47
2023/03/10 09:26:21;;;;;;;3.27;1.33;;;10.90;79.80;;;13.88;49.37;95347.19;5032424;28;20044;-48
2023/03/10 09:28:50;;;;;;;3.30;1.00;;;10.90;80.30;;;13.90;49.11;95349.59;5032682;28;20405;-49
2023/03/10 09:31:26;;;;;;;1.77;0.90;;;10.90;80.00;;;13.94;49.18;95342.75;5032407;28;20037;-44
2023/03/10 09:33:54;;;;;;;2.77;1.20;;;10.90;79.80;;;13.96;49.38;95357.50;5030795;28;20037;-48
2023/03/10 09:36:22;;;;;;;1.40;0.87;;;11.00;79.40;;;13.90;49.25;95357.63;5014017;28;20049;-50
2023/03/10 09:38:50;;;;;;;2.27;1.30;;;11.00;79.60;;;13.79;49.08;95373.47;5032288;28;20037;-48
2023/03/10 09:42:19;;;;;;;2.73;1.17;;;10.90;79.40;;;13.65;49.82;95361.44;5032277;28;20056;-46
2023/03/10 09:45:39;;;;;;;1.10;0.60;;;10.80;80.60;;;13.50;50.60;95364.59;5026903;28;20068;-45
2023/03/10 09:48:34;;;;;;;;;;;10.60;83.70;;;13.55;50.70;95361.19;5025179;28;20044;-46
2023/03/10 09:51:13;;;;;;;3.25;0.85;;;10.60;85.80;;;13.65;50.87;95353.41;5029910;28;19921;-41
2023/03/10 09:54:00;;;;;;;0.53;0.50;;;10.60;86.30;;;13.79;50.63;95346.72;5036479;28;20440;-42
2023/03/10 09:56:33;;;;;;;3.30;1.43;;;10.70;86.30;;;13.97;51.32;95350.28;5030757;28;20045;-41
2023/03/10 09:59:27;;;;;;;1.70;1.05;;;10.90;88.10;;;14.13;51.10;95354.88;5031909;28;20108;-42
2023/03/10 10:01:55;;;;;;;3.28;1.30;;;11.00;87.90;;;14.14;51.10;95348.47;5030769;28;20069;-42
2023/03/10 10:04:38;;;;;;;2.90;1.70;;;11.10;87.60;;;14.21;51.15;95355.53;5031870;28;20046;-41
2023/03/10 10:07:23;;;;;;;6.63;2.88;;;11.10;88.10;;;14.23;51.26;95356.94;5030271;28;20057;-42
2023/03/10 10:10:23;;;;;;;1.40;1.10;;;11.10;89.10;;;14.23;50.94;95358.78;5024057;28;20420;-42
2023/03/10 10:12:53;;;;;;;2.53;0.80;;;11.00;89.30;;;14.24;51.61;95355.88;5023771;28;20041;-43
2023/03/10 10:15:25;;;;;;;2.97;1.27;;;11.10;89.10;;;14.18;51.14;95352.28;5030576;28;20421;-45
2023/03/10 10:18:22;;;;;;;1.80;0.77;;;11.00;88.00;;;14.19;51.47;95361.13;5030653;28;20069;-44
2023/03/10 10:21:00;;;;;;;1.70;0.77;;;11.00;89.50;;;14.24;51.50;95355.06;5023588;28;20058;-42
2023/03/10 10:23:48;;;;;;;2.43;1.30;;;11.00;89.90;;;14.24;51.68;95363.09;5029502;28;20038;-42
2023/03/10 10:26:25;;;;;;;2.57;1.00;;;11.00;90.40;;;14.24;51.57;95357.72;5030334;28;20049;-44
2023/03/10 10:28:59;;;;;;;1.77;0.80;;;11.00;90.40;;;14.19;51.43;95358.47;5023282;28;20037;-44
2023/03/10 10:31:30;;;;;;;3.70;0.80;;;11.00;89.70;;;14.22;51.49;95363.31;5031832;28;20048;-43
2023/03/10 10:34:06;;;;;;;1.83;1.37;;;10.90;90.10;;;14.18;51.28;95365.66;5031562;28;20056;-44
2023/03/10 10:36:54;;;;;;;1.33;0.73;;;11.00;89.10;;;14.18;51.64;95359.50;5030721;28;20050;-44
2023/03/10 10:39:35;;;;;;;2.93;1.10;;;10.90;90.80;;;14.10;51.93;95354.53;5031279;28;20060;-44